createdAt,value
2023-05-14T00:00:26.133Z,3.15
2023-05-14T00:02:53.948Z,2.50
2023-05-14T00:05:22.110Z,3.28
2023-05-14T00:07:49.850Z,2.30
2023-05-14T00:10:19.141Z,2.03
2023-05-14T00:12:48.351Z,3.05
2023-05-14T00:15:16.070Z,2.55
2023-05-14T00:17:43.827Z,2.10
2023-05-14T00:20:14.888Z,2.20
2023-05-14T00:22:44.597Z,2.13
2023-05-14T00:25:12.332Z,2.05
2023-05-14T00:27:40.073Z,2.08
2023-05-14T00:30:09.892Z,1.70
2023-05-14T00:32:37.617Z,2.22
2023-05-14T00:35:06.037Z,2.38
2023-05-14T00:37:33.794Z,1.90
2023-05-14T00:40:06.660Z,2.58
2023-05-14T00:42:34.967Z,2.47
2023-05-14T00:45:02.712Z,1.92
2023-05-14T00:47:33.406Z,2.15
2023-05-14T00:50:01.440Z,1.75
2023-05-14T00:52:29.216Z,2.65
2023-05-14T00:54:57.870Z,1.58
2023-05-14T00:57:27.556Z,2.50
2023-05-14T00:59:55.411Z,2.47
2023-05-14T01:02:23.283Z,2.17
2023-05-14T01:04:53.240Z,1.42
2023-05-14T01:07:31.250Z,1.92
2023-05-14T01:10:07.891Z,1.77
2023-05-14T01:12:41.167Z,2.00
2023-05-14T01:15:12.544Z,2.25
2023-05-14T01:17:43.998Z,2.35
2023-05-14T01:20:13.634Z,2.35
2023-05-14T01:22:42.801Z,2.65
2023-05-14T01:25:11.386Z,2.50
2023-05-14T01:27:48.725Z,1.83
2023-05-14T01:30:22.996Z,2.03
2023-05-14T01:35:23.552Z,1.70
2023-05-14T01:37:55.774Z,2.13
2023-05-14T01:40:24.740Z,2.05
2023-05-14T01:42:54.664Z,1.73
2023-05-14T01:45:22.424Z,2.75
2023-05-14T01:47:50.576Z,2.35
2023-05-14T01:50:20.368Z,1.80
2023-05-14T01:52:49.022Z,2.08
2023-05-14T01:55:18.356Z,2.17
2023-05-14T01:57:46.063Z,1.88
2023-05-14T02:00:14.886Z,2.95
2023-05-14T02:02:42.680Z,1.92
2023-05-14T02:05:13.724Z,2.05
2023-05-14T02:07:43.256Z,1.75
2023-05-14T02:10:11.454Z,1.45
2023-05-14T02:12:40.714Z,2.42
2023-05-14T02:15:10.910Z,2.92
2023-05-14T02:17:39.099Z,2.22
2023-05-14T02:20:09.543Z,1.75
2023-05-14T02:22:37.814Z,2.50
2023-05-14T02:25:06.152Z,2.50
2023-05-14T02:27:34.663Z,2.42
2023-05-14T02:30:04.644Z,1.83
2023-05-14T02:32:32.474Z,2.30
2023-05-14T02:35:00.454Z,2.03
2023-05-14T02:37:28.135Z,1.85
2023-05-14T02:39:55.942Z,1.20
2023-05-14T02:42:23.790Z,2.05
2023-05-14T02:44:52.832Z,1.65
2023-05-14T02:47:22.137Z,1.38
2023-05-14T02:49:52.677Z,2.45
2023-05-14T02:52:21.211Z,1.80
2023-05-14T02:54:48.940Z,1.80
2023-05-14T02:57:16.698Z,2.78
2023-05-14T02:59:44.471Z,2.28
2023-05-14T03:02:12.699Z,2.13
2023-05-14T03:04:42.293Z,2.63
2023-05-14T03:07:10.083Z,1.88
2023-05-14T03:09:38.424Z,1.30
2023-05-14T03:12:06.942Z,2.47
2023-05-14T03:14:34.859Z,2.45
2023-05-14T03:17:03.946Z,1.45
2023-05-14T03:19:31.814Z,1.42
2023-05-14T03:22:01.033Z,2.28
2023-05-14T03:24:28.748Z,1.77
2023-05-14T03:26:56.484Z,2.63
2023-05-14T03:29:24.347Z,2.15
2023-05-14T03:31:52.165Z,1.77
2023-05-14T03:34:20.127Z,2.45
2023-05-14T03:36:47.860Z,2.78
2023-05-14T03:39:19.685Z,2.63
2023-05-14T03:41:47.760Z,1.77
2023-05-14T03:44:15.852Z,2.60
2023-05-14T03:46:43.554Z,1.60
2023-05-14T03:49:12.983Z,2.53
2023-05-14T03:51:40.933Z,2.45
2023-05-14T03:54:08.812Z,3.00
2023-05-14T03:56:37.901Z,2.03
2023-05-14T03:59:05.747Z,1.73
2023-05-14T04:01:33.552Z,1.50
2023-05-14T04:04:03.165Z,2.35
2023-05-14T04:06:32.299Z,2.50
2023-05-14T04:09:00.131Z,2.60
2023-05-14T04:11:28.080Z,1.92
2023-05-14T04:13:57.225Z,2.50
2023-05-14T04:16:25.019Z,1.95
2023-05-14T04:18:52.836Z,2.22
2023-05-14T04:21:21.936Z,2.05
2023-05-14T04:23:50.825Z,1.92
2023-05-14T04:26:18.663Z,1.63
2023-05-14T04:28:46.394Z,2.20
2023-05-14T04:31:16.462Z,2.33
2023-05-14T04:33:44.346Z,2.17
2023-05-14T04:36:12.444Z,2.05
2023-05-14T04:38:41.037Z,2.83
2023-05-14T04:41:08.903Z,2.08
2023-05-14T04:43:39.125Z,2.83
2023-05-14T04:46:07.734Z,1.75
2023-05-14T04:48:37.138Z,2.00
2023-05-14T04:51:07.128Z,2.10
2023-05-14T04:53:35.061Z,1.50
2023-05-14T04:56:02.756Z,2.67
2023-05-14T04:58:34.531Z,1.98
2023-05-14T05:01:03.934Z,2.05
2023-05-14T05:03:32.214Z,2.20
2023-05-14T05:06:01.436Z,1.90
2023-05-14T05:08:29.308Z,1.65
2023-05-14T05:10:57.009Z,1.88
2023-05-14T05:13:24.829Z,3.08
2023-05-14T05:15:52.595Z,3.00
2023-05-14T05:18:20.462Z,1.83
2023-05-14T05:20:48.297Z,1.88
2023-05-14T05:23:17.454Z,1.75
2023-05-14T05:25:45.150Z,2.60
2023-05-14T05:28:12.905Z,1.50
2023-05-14T05:30:40.949Z,2.40
2023-05-14T05:33:08.793Z,1.70
2023-05-14T05:35:36.572Z,2.08
2023-05-14T05:38:04.440Z,1.75
2023-05-14T05:40:33.655Z,3.95
2023-05-14T05:43:01.424Z,2.60
2023-05-14T05:45:29.152Z,2.20
2023-05-14T05:47:56.899Z,2.20
2023-05-14T05:50:25.572Z,2.03
2023-05-14T05:52:53.599Z,1.80
2023-05-14T05:55:21.480Z,2.35
2023-05-14T05:57:50.810Z,2.33
2023-05-14T06:00:19.246Z,1.90
2023-05-14T06:02:47.522Z,1.92
2023-05-14T06:05:18.978Z,1.67
2023-05-14T06:07:46.808Z,2.67
2023-05-14T06:10:14.632Z,2.35
2023-05-14T06:12:42.432Z,2.25
2023-05-14T06:15:12.743Z,2.90
2023-05-14T06:17:40.621Z,2.83
2023-05-14T06:20:09.949Z,2.17
2023-05-14T06:22:37.917Z,2.67
2023-05-14T06:25:06.203Z,2.60
2023-05-14T06:27:34.017Z,2.70
2023-05-14T06:30:01.759Z,2.45
2023-05-14T06:32:30.836Z,2.22
2023-05-14T06:34:58.645Z,2.85
2023-05-14T06:37:26.426Z,3.53
2023-05-14T06:39:54.740Z,2.58
2023-05-14T06:42:24.134Z,2.92
2023-05-14T06:44:51.925Z,3.45
2023-05-14T06:47:19.672Z,2.10
2023-05-14T06:49:49.065Z,1.98
2023-05-14T06:52:18.458Z,2.35
2023-05-14T06:54:46.237Z,3.10
2023-05-14T06:57:13.952Z,2.45
2023-05-14T06:59:41.736Z,2.42
2023-05-14T07:02:09.412Z,2.45
2023-05-14T07:04:37.402Z,2.13
2023-05-14T07:07:06.779Z,3.30
2023-05-14T07:09:34.540Z,2.10
2023-05-14T07:12:02.292Z,2.38
2023-05-14T07:14:33.081Z,2.50
2023-05-14T07:17:01.319Z,2.50
2023-05-14T07:19:30.169Z,2.67
2023-05-14T07:21:58.504Z,1.95
2023-05-14T07:24:27.611Z,2.28
2023-05-14T07:26:57.234Z,2.88
2023-05-14T07:29:25.717Z,2.33
2023-05-14T07:31:53.532Z,2.85
2023-05-14T07:34:22.992Z,3.80
2023-05-14T07:36:50.805Z,3.13
2023-05-14T07:39:18.668Z,2.15
2023-05-14T07:41:47.931Z,2.90
2023-05-14T07:44:15.787Z,2.78
2023-05-14T07:46:43.678Z,2.47
2023-05-14T07:49:11.380Z,3.25
2023-05-14T07:51:39.225Z,2.35
2023-05-14T07:54:06.977Z,2.45
2023-05-14T07:56:34.777Z,2.40
2023-05-14T07:59:04.102Z,2.17
2023-05-14T08:01:32.291Z,1.67
2023-05-14T08:04:00.146Z,3.30
2023-05-14T08:06:28.260Z,2.53
2023-05-14T08:08:55.989Z,2.65
2023-05-14T08:11:23.780Z,2.88
2023-05-14T08:13:51.538Z,1.88
2023-05-14T08:16:20.641Z,2.47
2023-05-14T08:18:49.442Z,3.10
2023-05-14T08:21:17.628Z,1.95
2023-05-14T08:23:48.321Z,2.72
2023-05-14T08:26:16.055Z,3.08
2023-05-14T08:28:44.051Z,2.60
2023-05-14T08:31:11.859Z,2.50
2023-05-14T08:33:41.216Z,2.83
2023-05-14T08:36:09.553Z,2.97
2023-05-14T08:38:37.342Z,2.22
2023-05-14T08:41:07.050Z,3.00
2023-05-14T08:43:45.826Z,2.85
2023-05-14T08:46:16.116Z,2.70
2023-05-14T08:48:49.325Z,2.70
2023-05-14T08:51:17.344Z,2.67
2023-05-14T08:53:45.784Z,2.83
2023-05-14T08:56:14.295Z,3.03
2023-05-14T08:58:42.106Z,2.47
2023-05-14T09:01:09.824Z,3.75
2023-05-14T09:03:38.522Z,2.67
2023-05-14T09:06:09.051Z,3.67
2023-05-14T09:08:38.716Z,2.58
2023-05-14T09:11:06.754Z,2.75
2023-05-14T09:13:34.675Z,3.60
2023-05-14T09:16:06.785Z,3.33
2023-05-14T09:18:37.184Z,3.70
2023-05-14T09:21:07.160Z,3.33
2023-05-14T09:23:35.735Z,2.88
2023-05-14T09:26:07.724Z,3.35
2023-05-14T09:28:35.658Z,3.08
2023-05-14T09:31:05.090Z,3.08
2023-05-14T09:33:33.094Z,2.50
2023-05-14T09:36:01.114Z,2.53
2023-05-14T09:38:33.965Z,3.53
2023-05-14T09:41:01.964Z,3.70
2023-05-14T09:43:29.763Z,2.88
2023-05-14T09:45:57.750Z,3.83
2023-05-14T09:48:26.326Z,2.95
2023-05-14T09:50:54.289Z,3.38
2023-05-14T09:53:22.426Z,2.92
2023-05-14T09:55:51.608Z,3.67
2023-05-14T09:58:19.486Z,3.15
2023-05-14T10:00:48.274Z,2.50
2023-05-14T10:03:19.542Z,3.13
2023-05-14T10:05:50.198Z,3.63
2023-05-14T10:08:23.270Z,2.92
2023-05-14T10:10:54.363Z,2.50
2023-05-14T10:13:25.233Z,2.75
2023-05-14T10:15:58.601Z,2.90
2023-05-14T10:18:31.834Z,2.85
2023-05-14T10:21:05.587Z,2.30
2023-05-14T10:23:34.210Z,2.58
2023-05-14T10:26:06.531Z,2.50
2023-05-14T10:28:34.496Z,2.30
2023-05-14T10:31:02.220Z,2.85
2023-05-14T10:33:30.039Z,2.90
2023-05-14T10:36:03.928Z,3.03
2023-05-14T10:38:33.197Z,3.17
2023-05-14T10:41:03.625Z,2.75
2023-05-14T10:43:32.164Z,2.47
2023-05-14T10:46:02.726Z,2.70
2023-05-14T10:48:30.772Z,2.95
2023-05-14T10:50:59.009Z,3.08
2023-05-14T10:53:35.397Z,2.50
2023-05-14T10:56:07.878Z,3.05
2023-05-14T10:58:39.401Z,2.30
2023-05-14T11:01:12.973Z,2.47
2023-05-14T11:03:42.773Z,2.55
2023-05-14T11:06:12.291Z,2.50
2023-05-14T11:08:41.521Z,2.97
2023-05-14T11:11:11.555Z,2.65
2023-05-14T11:13:39.627Z,2.78
2023-05-14T11:18:38.771Z,2.20
2023-05-14T11:21:07.049Z,2.70
2023-05-14T11:23:34.874Z,2.40
2023-05-14T11:26:02.974Z,2.72
2023-05-14T11:28:32.273Z,2.17
2023-05-14T11:31:02.483Z,1.98
2023-05-14T11:33:30.462Z,2.40
2023-05-14T11:35:58.326Z,2.33
2023-05-14T11:38:26.114Z,2.35
2023-05-14T11:40:57.213Z,1.60
2023-05-14T11:43:26.159Z,2.45
2023-05-14T11:45:55.615Z,2.35
2023-05-14T11:48:24.851Z,2.60
2023-05-14T11:50:54.121Z,2.03
2023-05-14T11:53:27.027Z,1.98
2023-05-14T11:55:57.579Z,2.17
2023-05-14T11:58:25.812Z,1.30
2023-05-14T12:00:57.034Z,2.10
2023-05-14T12:03:26.760Z,2.35
2023-05-14T12:06:02.965Z,2.22
2023-05-14T12:08:32.457Z,1.58
2023-05-14T12:11:01.390Z,1.90
2023-05-14T12:13:30.641Z,2.28
2023-05-14T12:16:02.031Z,2.30
2023-05-14T12:18:31.642Z,2.13
2023-05-14T12:21:04.341Z,2.38
2023-05-14T12:23:33.281Z,1.83
2023-05-14T12:26:02.808Z,2.40
2023-05-14T12:28:30.962Z,2.00
2023-05-14T12:31:00.418Z,1.98
2023-05-14T12:33:28.798Z,2.38
2023-05-14T12:36:07.390Z,1.98
2023-05-14T12:38:42.084Z,1.63
2023-05-14T12:41:09.802Z,2.60
2023-05-14T12:43:37.456Z,2.05
2023-05-14T12:46:06.675Z,2.72
2023-05-14T12:48:34.430Z,2.28
2023-05-14T12:51:02.164Z,2.00
2023-05-14T12:53:29.874Z,1.90
2023-05-14T12:55:57.593Z,1.83
2023-05-14T12:58:25.364Z,1.67
2023-05-14T13:00:53.341Z,1.70
2023-05-14T13:03:22.473Z,1.40
2023-05-14T13:05:51.675Z,1.42
2023-05-14T13:08:21.544Z,2.10
2023-05-14T13:10:49.290Z,2.17
2023-05-14T13:13:17.606Z,1.90
2023-05-14T13:15:46.680Z,1.60
2023-05-14T13:18:14.473Z,1.70
2023-05-14T13:20:43.540Z,1.80
2023-05-14T13:23:11.257Z,1.23
2023-05-14T13:25:39.139Z,1.38
2023-05-14T13:28:06.882Z,1.50
2023-05-14T13:30:34.609Z,2.15
2023-05-14T13:33:02.517Z,2.13
2023-05-14T13:35:30.371Z,1.80
2023-05-14T13:37:59.548Z,1.77
2023-05-14T13:40:27.315Z,1.73
2023-05-14T13:42:55.104Z,2.47
2023-05-14T13:45:23.154Z,2.25
2023-05-14T13:47:51.712Z,1.92
2023-05-14T13:50:19.661Z,2.47
2023-05-14T13:52:47.436Z,2.30
2023-05-14T13:55:17.249Z,2.08
2023-05-14T13:57:45.296Z,1.60
2023-05-14T14:00:15.015Z,1.67
2023-05-14T14:02:42.783Z,2.28
2023-05-14T14:05:10.898Z,2.50
2023-05-14T14:07:39.647Z,1.40
2023-05-14T14:10:08.963Z,1.98
2023-05-14T14:12:38.119Z,1.55
2023-05-14T14:15:07.429Z,1.65
2023-05-14T14:17:35.227Z,2.03
2023-05-14T14:20:05.914Z,1.42
2023-05-14T14:22:37.106Z,1.75
2023-05-14T14:25:05.228Z,1.77
2023-05-14T14:27:34.850Z,1.85
2023-05-14T14:30:03.950Z,1.75
2023-05-14T14:32:31.702Z,1.75
2023-05-14T14:34:59.496Z,1.70
2023-05-14T14:37:27.551Z,1.80
2023-05-14T14:39:55.183Z,1.63
2023-05-14T14:42:22.850Z,1.23
2023-05-14T14:44:50.846Z,1.65
2023-05-14T14:47:19.873Z,1.25
2023-05-14T14:49:47.616Z,1.63
2023-05-14T14:52:15.316Z,1.38
2023-05-14T14:54:43.153Z,1.60
2023-05-14T14:57:13.750Z,1.48
2023-05-14T14:59:41.510Z,1.30
2023-05-14T15:02:10.307Z,1.45
2023-05-14T15:04:39.526Z,1.67
2023-05-14T15:07:07.241Z,1.50
2023-05-14T15:09:35.036Z,0.98
2023-05-14T15:12:02.869Z,1.13
2023-05-14T15:14:30.621Z,1.75
2023-05-14T15:16:58.558Z,1.20
2023-05-14T15:19:28.001Z,1.80
2023-05-14T15:21:57.154Z,1.77
2023-05-14T15:24:26.149Z,1.73
2023-05-14T15:26:54.007Z,1.10
2023-05-14T15:29:22.390Z,1.35
2023-05-14T15:31:50.190Z,1.33
2023-05-14T15:34:17.991Z,1.48
2023-05-14T15:36:45.807Z,1.58
2023-05-14T15:39:15.213Z,1.20
2023-05-14T15:41:43.017Z,1.15
2023-05-14T15:44:10.805Z,1.90
2023-05-14T15:46:38.880Z,1.75
2023-05-14T15:49:06.698Z,1.83
2023-05-14T15:51:35.224Z,1.70
2023-05-14T15:54:03.138Z,1.83
2023-05-14T15:56:32.365Z,1.70
2023-05-14T15:59:00.181Z,1.33
2023-05-14T16:01:27.940Z,1.90
2023-05-14T16:03:56.027Z,1.70
2023-05-14T16:06:23.903Z,1.30
2023-05-14T16:08:52.161Z,2.30
2023-05-14T16:11:19.865Z,2.20
2023-05-14T16:13:49.517Z,3.20
2023-05-14T16:16:17.393Z,2.90
2023-05-14T16:18:45.239Z,1.63
2023-05-14T16:21:13.269Z,1.85
2023-05-14T16:23:41.288Z,1.30
2023-05-14T16:26:09.119Z,1.13
2023-05-14T16:28:36.893Z,1.70
2023-05-14T16:31:06.086Z,2.05
2023-05-14T16:33:33.774Z,2.00
2023-05-14T16:36:01.583Z,1.50
2023-05-14T16:38:29.337Z,1.33
2023-05-14T16:40:57.016Z,1.42
2023-05-14T16:43:24.918Z,1.63
2023-05-14T16:45:52.740Z,2.08
2023-05-14T16:48:23.781Z,1.70
2023-05-14T16:50:52.285Z,1.73
2023-05-14T16:53:20.066Z,1.83
2023-05-14T16:55:47.915Z,1.30
2023-05-14T16:58:15.683Z,1.33
2023-05-14T17:00:43.409Z,1.70
2023-05-14T17:03:11.169Z,1.73
2023-05-14T17:05:40.302Z,2.00
2023-05-14T17:08:08.036Z,1.80
2023-05-14T17:10:35.852Z,1.63
2023-05-14T17:13:05.788Z,1.40
2023-05-14T17:15:33.700Z,1.58
2023-05-14T17:18:01.713Z,1.27
2023-05-14T17:20:30.681Z,1.50
2023-05-14T17:22:59.769Z,1.50
2023-05-14T17:25:27.691Z,1.50
2023-05-14T17:27:55.437Z,1.55
2023-05-14T17:30:23.196Z,1.58
2023-05-14T17:32:51.289Z,1.27
2023-05-14T17:35:19.254Z,1.50
2023-05-14T17:37:47.050Z,1.77
2023-05-14T17:40:16.259Z,1.30
2023-05-14T17:42:45.443Z,0.98
2023-05-14T17:45:14.474Z,1.27
2023-05-14T17:47:42.266Z,1.67
2023-05-14T17:50:11.383Z,1.33
2023-05-14T17:52:40.857Z,1.23
2023-05-14T17:55:09.327Z,1.33
2023-05-14T17:57:38.670Z,1.52
2023-05-14T18:00:08.249Z,1.55
2023-05-14T18:02:39.043Z,1.48
2023-05-14T18:05:07.562Z,1.30
2023-05-14T18:07:36.877Z,1.00
2023-05-14T18:10:04.931Z,1.10
2023-05-14T18:12:32.802Z,1.60
2023-05-14T18:15:01.883Z,1.40
2023-05-14T18:17:29.746Z,1.45
2023-05-14T18:19:57.497Z,1.42
2023-05-14T18:22:25.226Z,1.92
2023-05-14T18:24:52.961Z,1.92
2023-05-14T18:27:20.744Z,1.90
2023-05-14T18:29:48.498Z,1.40
2023-05-14T18:32:17.543Z,2.30
2023-05-14T18:34:45.330Z,2.13
2023-05-14T18:37:13.687Z,1.15
2023-05-14T18:39:41.446Z,1.45
2023-05-14T18:42:09.891Z,1.83
2023-05-14T18:44:39.426Z,2.05
2023-05-14T18:47:07.819Z,1.90
2023-05-14T18:49:40.129Z,1.95
2023-05-14T18:52:08.174Z,1.35
2023-05-14T18:54:38.906Z,1.10
2023-05-14T18:57:07.163Z,1.95
2023-05-14T18:59:34.934Z,1.40
2023-05-14T19:02:02.800Z,1.65
2023-05-14T19:04:33.268Z,1.67
2023-05-14T19:07:02.939Z,1.60
2023-05-14T19:09:30.770Z,1.75
2023-05-14T19:11:58.664Z,1.25
2023-05-14T19:14:27.855Z,1.42
2023-05-14T19:16:55.718Z,1.10
2023-05-14T19:19:23.518Z,1.83
2023-05-14T19:21:51.261Z,1.95
2023-05-14T19:24:20.321Z,1.55
2023-05-14T19:26:50.777Z,1.50
2023-05-14T19:29:18.605Z,1.65
2023-05-14T19:31:47.086Z,1.45
2023-05-14T19:34:14.909Z,1.38
2023-05-14T19:36:43.205Z,1.55
2023-05-14T19:39:12.020Z,1.65
2023-05-14T19:41:41.199Z,1.67
2023-05-14T19:44:08.955Z,1.55
2023-05-14T19:46:37.706Z,1.20
2023-05-14T19:49:05.422Z,1.42
2023-05-14T19:51:33.183Z,1.23
2023-05-14T19:54:01.159Z,1.30
2023-05-14T19:56:31.611Z,1.17
2023-05-14T19:59:00.849Z,0.95
2023-05-14T20:01:28.956Z,1.23
2023-05-14T20:03:56.754Z,1.17
2023-05-14T20:06:24.566Z,1.58
2023-05-14T20:08:52.435Z,0.63
2023-05-14T20:11:20.187Z,1.67
2023-05-14T20:13:50.959Z,0.57
2023-05-14T20:16:20.258Z,1.67
2023-05-14T20:18:48.031Z,0.90
2023-05-14T20:21:16.212Z,1.52
2023-05-14T20:23:44.050Z,1.65
2023-05-14T20:26:11.820Z,1.50
2023-05-14T20:28:39.611Z,1.65
2023-05-14T20:31:07.964Z,1.80
2023-05-14T20:33:37.275Z,2.13
2023-05-14T20:36:05.276Z,1.92
2023-05-14T20:38:34.887Z,1.75
2023-05-14T20:41:02.892Z,1.30
2023-05-14T20:43:30.788Z,1.35
2023-05-14T20:45:59.321Z,1.92
2023-05-14T20:48:27.124Z,1.25
2023-05-14T20:50:56.242Z,1.58
2023-05-14T20:53:25.365Z,0.68
2023-05-14T20:55:53.238Z,1.27
2023-05-14T20:58:21.245Z,1.77
2023-05-14T21:00:48.992Z,1.02
2023-05-14T21:03:17.173Z,1.52
2023-05-14T21:05:45.222Z,1.00
2023-05-14T21:08:14.296Z,1.13
2023-05-14T21:10:42.057Z,1.25
2023-05-14T21:13:09.839Z,1.27
2023-05-14T21:15:37.817Z,1.10
2023-05-14T21:18:05.738Z,0.82
2023-05-14T21:20:33.640Z,0.70
2023-05-14T21:23:01.419Z,0.90
2023-05-14T21:25:31.158Z,1.13
2023-05-14T21:27:58.904Z,1.55
2023-05-14T21:30:26.653Z,1.25
2023-05-14T21:32:54.476Z,0.65
2023-05-14T21:35:22.475Z,1.10
2023-05-14T21:37:53.344Z,1.67
2023-05-14T21:40:21.165Z,1.13
2023-05-14T21:42:51.085Z,1.48
2023-05-14T21:45:19.399Z,1.55
2023-05-14T21:47:48.040Z,1.10
2023-05-14T21:50:15.866Z,0.77
2023-05-14T21:52:43.596Z,1.25
2023-05-14T21:55:11.355Z,1.10
2023-05-14T21:57:39.234Z,0.80
2023-05-14T22:00:13.282Z,0.93
2023-05-14T22:02:42.924Z,1.45
2023-05-14T22:05:10.927Z,1.55
2023-05-14T22:07:38.703Z,1.27
2023-05-14T22:10:07.372Z,1.05
2023-05-14T22:12:35.146Z,2.00
2023-05-14T22:15:03.214Z,1.63
2023-05-14T22:17:34.422Z,0.60
2023-05-14T22:20:02.408Z,0.98
2023-05-14T22:22:30.249Z,0.82
2023-05-14T22:24:58.005Z,1.10
2023-05-14T22:27:25.823Z,1.42
2023-05-14T22:29:55.095Z,1.30
2023-05-14T22:32:23.177Z,1.70
2023-05-14T22:34:52.360Z,1.25
2023-05-14T22:37:20.116Z,1.33
2023-05-14T22:39:47.883Z,0.93
2023-05-14T22:42:15.708Z,1.58
2023-05-14T22:44:43.426Z,1.25
2023-05-14T22:47:11.676Z,2.13
2023-05-14T22:49:40.107Z,2.05
2023-05-14T22:52:09.682Z,2.83
2023-05-14T22:54:37.470Z,1.65
2023-05-14T22:57:05.775Z,2.35
2023-05-14T22:59:33.842Z,1.92
2023-05-14T23:02:01.626Z,1.40
2023-05-14T23:04:29.417Z,1.27
2023-05-14T23:06:57.256Z,1.30
2023-05-14T23:09:26.281Z,1.58
2023-05-14T23:11:54.093Z,1.17
2023-05-14T23:14:22.637Z,1.67
2023-05-14T23:16:50.515Z,1.15
2023-05-14T23:19:18.458Z,1.85
2023-05-14T23:21:46.280Z,1.88
2023-05-14T23:24:14.031Z,2.00
2023-05-14T23:26:43.153Z,1.40
2023-05-14T23:29:10.944Z,0.95
2023-05-14T23:31:44.350Z,1.88
2023-05-14T23:34:12.146Z,1.23
2023-05-14T23:36:43.020Z,1.88
2023-05-14T23:39:10.791Z,1.10
2023-05-14T23:41:38.503Z,1.83
2023-05-14T23:44:07.901Z,1.15
2023-05-14T23:46:35.762Z,1.30
2023-05-14T23:49:04.873Z,1.80
2023-05-14T23:51:32.661Z,0.80
2023-05-14T23:54:00.410Z,1.98
2023-05-14T23:56:29.048Z,1.33
2023-05-14T23:58:57.218Z,0.95
